createdAt,value
2022-08-05T00:00:52.118Z,23.70
2022-08-05T00:01:53.871Z,23.60
2022-08-05T00:02:56.019Z,23.70
2022-08-05T00:03:57.740Z,23.70
2022-08-05T00:04:59.657Z,23.60
2022-08-05T00:06:22.082Z,23.60
2022-08-05T00:07:59.683Z,23.60
2022-08-05T00:08:46.051Z,23.60
2022-08-05T00:09:49.101Z,23.60
2022-08-05T00:10:50.653Z,23.50
2022-08-05T00:11:55.733Z,23.50
2022-08-05T00:13:01.785Z,23.50
2022-08-05T00:14:12.755Z,23.50
2022-08-05T00:15:55.519Z,23.40
2022-08-05T00:16:53.330Z,23.40
2022-08-05T00:17:55.555Z,23.40
2022-08-05T00:18:57.297Z,23.40
2022-08-05T00:20:02.846Z,23.50
2022-08-05T00:21:06.965Z,23.50
2022-08-05T00:22:11.118Z,23.40
2022-08-05T00:23:13.397Z,23.40
2022-08-05T00:24:18.886Z,23.40
2022-08-05T00:25:26.510Z,23.40
2022-08-05T00:26:52.014Z,23.40
2022-08-05T00:27:54.470Z,23.30
2022-08-05T00:28:57.026Z,23.30
2022-08-05T00:29:59.164Z,23.30
2022-08-05T00:31:07.594Z,23.30
2022-08-05T00:32:15.111Z,23.30
2022-08-05T00:34:55.988Z,23.30
2022-08-05T00:35:05.581Z,23.30
2022-08-05T00:36:16.139Z,23.30
2022-08-05T00:37:35.647Z,23.30
2022-08-05T00:38:50.259Z,23.30
2022-08-05T00:39:57.914Z,23.30
2022-08-05T00:41:00.817Z,23.30
2022-08-05T00:42:03.251Z,23.30
2022-08-05T00:43:07.620Z,23.30
2022-08-05T00:44:09.374Z,23.30
2022-08-05T00:45:13.471Z,23.20
2022-08-05T00:46:15.252Z,23.20
2022-08-05T00:47:18.503Z,23.20
2022-08-05T00:48:31.330Z,23.30
2022-08-05T00:49:51.074Z,23.30
2022-08-05T00:50:54.253Z,23.30
2022-08-05T00:51:55.855Z,23.30
2022-08-05T00:52:57.630Z,23.30
2022-08-05T00:54:02.523Z,23.30
2022-08-05T00:55:07.357Z,23.30
2022-08-05T00:56:09.582Z,23.30
2022-08-05T00:57:11.391Z,23.30
2022-08-05T00:58:17.094Z,23.30
2022-08-05T00:59:21.169Z,23.30
2022-08-05T01:00:22.762Z,23.40
2022-08-05T01:01:42.968Z,23.40
2022-08-05T01:02:50.153Z,23.40
2022-08-05T01:03:52.483Z,23.60
2022-08-05T01:04:54.275Z,23.60
2022-08-05T01:05:56.492Z,23.60
2022-08-05T01:06:58.111Z,23.60
2022-08-05T01:08:40.218Z,23.70
2022-08-05T01:09:22.864Z,23.70
2022-08-05T01:10:35.537Z,23.80
2022-08-05T01:11:40.802Z,23.90
2022-08-05T01:13:03.208Z,23.90
2022-08-05T01:14:42.307Z,24.00
2022-08-05T01:15:50.646Z,24.00
2022-08-05T01:17:04.668Z,24.00
2022-08-05T01:18:13.522Z,24.10
2022-08-05T01:19:36.621Z,24.40
2022-08-05T01:20:50.881Z,24.60
2022-08-05T01:22:18.922Z,24.60
2022-08-05T01:24:14.209Z,24.60
2022-08-05T01:25:24.914Z,24.60
2022-08-05T01:27:00.869Z,24.50
2022-08-05T01:28:39.703Z,24.50
2022-08-05T01:29:47.222Z,24.40
2022-08-05T01:31:03.017Z,24.40
2022-08-05T01:32:12.534Z,24.40
2022-08-05T01:33:25.242Z,24.30
2022-08-05T01:34:50.960Z,24.30
2022-08-05T01:35:57.663Z,24.20
2022-08-05T01:37:17.986Z,24.20
2022-08-05T01:38:29.932Z,24.20
2022-08-05T01:39:46.288Z,24.30
2022-08-05T01:40:50.531Z,24.10
2022-08-05T01:41:54.609Z,24.10
2022-08-05T01:42:57.832Z,24.10
2022-08-05T01:44:01.919Z,24.10
2022-08-05T01:45:07.172Z,24.10
2022-08-05T01:46:16.316Z,24.00
2022-08-05T01:47:21.004Z,24.00
2022-08-05T01:48:25.043Z,24.10
2022-08-05T01:49:27.772Z,24.10
2022-08-05T01:50:51.469Z,24.00
2022-08-05T01:51:58.030Z,23.90
2022-08-05T01:53:02.359Z,23.90
2022-08-05T01:54:07.579Z,23.90
2022-08-05T01:55:14.083Z,23.90
2022-08-05T01:58:09.488Z,23.90
2022-08-05T01:58:29.305Z,24.00
2022-08-05T01:59:08.418Z,23.90
2022-08-05T02:00:12.125Z,23.90
2022-08-05T02:01:25.314Z,23.80
2022-08-05T02:02:29.848Z,23.70
2022-08-05T02:03:38.233Z,23.70
2022-08-05T02:04:43.441Z,23.60
2022-08-05T02:05:49.371Z,23.60
2022-08-05T02:06:57.465Z,23.60
2022-08-05T02:08:01.563Z,23.50
2022-08-05T02:09:05.197Z,23.50
2022-08-05T02:10:07.984Z,23.50
2022-08-05T02:11:13.614Z,23.50
2022-08-05T02:12:34.499Z,23.50
2022-08-05T02:13:53.969Z,23.40
2022-08-05T02:15:19.985Z,23.40
2022-08-05T02:16:33.043Z,23.40
2022-08-05T02:18:31.229Z,23.30
2022-08-05T02:19:24.533Z,23.40
2022-08-05T02:20:39.145Z,23.30
2022-08-05T02:21:49.281Z,23.40
2022-08-05T02:23:05.695Z,23.40
2022-08-05T02:24:18.198Z,23.40
2022-08-05T02:25:24.893Z,23.30
2022-08-05T02:26:37.717Z,23.40
2022-08-05T02:27:58.134Z,23.40
2022-08-05T02:29:02.619Z,23.30
2022-08-05T02:30:08.863Z,23.30
2022-08-05T02:31:23.098Z,23.20
2022-08-05T02:32:30.595Z,23.20
2022-08-05T02:33:38.758Z,23.10
2022-08-05T02:34:41.940Z,23.10
2022-08-05T02:35:55.867Z,23.10
2022-08-05T02:37:04.981Z,23.00
2022-08-05T02:38:09.493Z,22.90
2022-08-05T02:39:13.133Z,22.90
2022-08-05T02:40:17.112Z,23.00
2022-08-05T02:41:21.069Z,22.90
2022-08-05T02:42:25.833Z,22.90
2022-08-05T02:43:28.472Z,23.00
2022-08-05T02:44:33.087Z,22.90
2022-08-05T02:45:51.951Z,22.90
2022-08-05T02:47:00.216Z,22.90
2022-08-05T02:48:11.617Z,22.90
2022-08-05T02:49:16.455Z,22.90
2022-08-05T02:50:19.071Z,23.00
2022-08-05T02:51:28.558Z,22.90
2022-08-05T02:52:45.735Z,22.80
2022-08-05T02:53:48.531Z,22.90
2022-08-05T02:54:57.008Z,22.80
2022-08-05T02:56:02.407Z,22.80
2022-08-05T02:57:09.760Z,22.80
2022-08-05T02:58:16.370Z,22.80
2022-08-05T02:59:19.520Z,22.80
2022-08-05T03:00:29.998Z,22.80
2022-08-05T03:01:34.511Z,22.70
2022-08-05T03:02:42.811Z,22.70
2022-08-05T03:04:03.413Z,22.70
2022-08-05T03:05:12.604Z,22.60
2022-08-05T03:06:54.727Z,22.60
2022-08-05T03:08:00.705Z,22.60
2022-08-05T03:09:00.995Z,22.60
2022-08-05T03:10:03.254Z,22.50
2022-08-05T03:11:53.148Z,22.50
2022-08-05T03:12:45.961Z,22.50
2022-08-05T03:14:03.302Z,22.50
2022-08-05T03:15:09.297Z,22.40
2022-08-05T03:16:11.475Z,22.40
2022-08-05T03:17:17.737Z,22.40
2022-08-05T03:18:24.740Z,22.30
2022-08-05T03:19:33.495Z,22.40
2022-08-05T03:20:38.486Z,22.40
2022-08-05T03:21:48.644Z,22.40
2022-08-05T03:22:51.582Z,22.30
2022-08-05T03:23:53.981Z,22.30
2022-08-05T03:24:57.098Z,22.30
2022-08-05T03:26:31.435Z,22.40
2022-08-05T03:27:58.949Z,22.30
2022-08-05T03:28:56.504Z,22.30
2022-08-05T03:30:07.185Z,22.30
2022-08-05T03:31:10.101Z,22.20
2022-08-05T03:32:20.700Z,22.20
2022-08-05T03:33:51.123Z,22.20
2022-08-05T03:34:54.731Z,22.10
2022-08-05T03:35:58.414Z,22.20
2022-08-05T03:37:00.925Z,22.20
2022-08-05T03:38:03.691Z,22.10
2022-08-05T03:39:12.838Z,22.10
2022-08-05T03:40:24.126Z,22.10
2022-08-05T03:41:45.200Z,22.10
2022-08-05T03:42:51.952Z,22.10
2022-08-05T03:44:09.979Z,22.00
2022-08-05T03:45:22.605Z,22.00
2022-08-05T03:46:29.822Z,22.00
2022-08-05T03:47:35.525Z,22.00
2022-08-05T03:48:45.252Z,22.00
2022-08-05T03:49:52.054Z,22.00
2022-08-05T03:52:35.024Z,22.00
2022-08-05T03:52:38.610Z,22.00
2022-08-05T03:55:51.304Z,22.00
2022-08-05T03:56:05.949Z,22.10
2022-08-05T03:57:00.279Z,22.10
2022-08-05T03:58:04.094Z,22.10
2022-08-05T03:59:13.697Z,22.00
2022-08-05T04:00:26.651Z,22.00
2022-08-05T04:01:32.179Z,21.90
2022-08-05T04:02:38.681Z,21.90
2022-08-05T04:04:09.114Z,21.90
2022-08-05T04:05:13.215Z,21.90
2022-08-05T04:06:17.696Z,21.90
2022-08-05T04:07:24.833Z,21.90
2022-08-05T04:08:36.250Z,21.90
2022-08-05T04:09:39.132Z,21.90
2022-08-05T04:10:57.214Z,21.90
2022-08-05T04:11:59.905Z,21.90
2022-08-05T04:13:04.332Z,21.90
2022-08-05T04:14:07.384Z,21.90
2022-08-05T04:15:10.765Z,21.90
2022-08-05T04:16:25.328Z,21.90
2022-08-05T04:17:55.578Z,21.90
2022-08-05T04:18:57.789Z,21.90
2022-08-05T04:19:59.684Z,21.80
2022-08-05T04:21:06.844Z,21.80
2022-08-05T04:22:12.057Z,21.80
2022-08-05T04:23:16.012Z,21.80
2022-08-05T04:24:19.435Z,21.80
2022-08-05T04:25:56.930Z,21.80
2022-08-05T04:26:45.981Z,21.90
2022-08-05T04:27:57.329Z,22.00
2022-08-05T04:29:01.335Z,22.00
2022-08-05T04:30:10.225Z,22.10
2022-08-05T04:31:11.876Z,22.10
2022-08-05T04:32:13.664Z,22.10
2022-08-05T04:33:54.774Z,22.10
2022-08-05T04:34:43.844Z,22.10
2022-08-05T04:36:15.551Z,22.00
2022-08-05T04:37:07.711Z,21.90
2022-08-05T04:38:10.203Z,21.90
2022-08-05T04:39:18.281Z,21.90
2022-08-05T04:40:20.059Z,21.90
2022-08-05T04:41:37.068Z,22.00
2022-08-05T04:42:40.813Z,22.00
2022-08-05T04:43:48.074Z,22.00
2022-08-05T04:44:53.730Z,22.00
2022-08-05T04:45:55.759Z,22.00
2022-08-05T04:47:09.025Z,22.00
2022-08-05T04:48:18.379Z,22.00
2022-08-05T04:49:38.925Z,22.00
2022-08-05T04:51:02.437Z,22.00
2022-08-05T04:52:11.582Z,22.00
2022-08-05T04:53:18.787Z,22.10
2022-08-05T04:54:22.200Z,22.10
2022-08-05T04:56:14.605Z,22.20
2022-08-05T04:56:45.899Z,22.20
2022-08-05T04:57:51.564Z,22.20
2022-08-05T04:58:56.077Z,22.30
2022-08-05T04:59:58.378Z,22.30
2022-08-05T05:01:00.955Z,22.40
2022-08-05T05:02:07.118Z,22.40
2022-08-05T05:03:11.254Z,22.50
2022-08-05T05:04:13.174Z,22.50
2022-08-05T05:05:26.509Z,22.60
2022-08-05T05:06:39.103Z,22.70
2022-08-05T05:07:52.883Z,22.80
2022-08-05T05:08:57.919Z,22.80
2022-08-05T05:10:04.254Z,22.90
2022-08-05T05:11:06.570Z,22.90
2022-08-05T05:12:08.379Z,23.00
2022-08-05T05:13:11.456Z,23.00
2022-08-05T05:14:16.163Z,23.00
2022-08-05T05:16:02.027Z,23.00
2022-08-05T05:16:39.716Z,23.00
2022-08-05T05:17:55.761Z,23.10
2022-08-05T05:19:18.913Z,23.10
2022-08-05T05:20:21.218Z,23.10
2022-08-05T05:21:28.251Z,23.10
2022-08-05T05:22:35.379Z,23.00
2022-08-05T05:24:03.808Z,23.00
2022-08-05T05:25:16.692Z,23.00
2022-08-05T05:26:19.185Z,23.00
2022-08-05T05:27:21.288Z,23.00
2022-08-05T05:28:24.861Z,23.00
2022-08-05T05:29:40.939Z,23.00
2022-08-05T05:30:49.680Z,23.00
2022-08-05T05:31:51.692Z,23.00
2022-08-05T05:32:57.145Z,23.10
2022-08-05T05:34:02.909Z,23.20
2022-08-05T05:35:05.037Z,23.20
2022-08-05T05:36:07.882Z,23.30
2022-08-05T05:37:13.217Z,23.30
2022-08-05T05:38:26.954Z,23.40
2022-08-05T05:39:34.374Z,23.40
2022-08-05T05:40:36.457Z,23.50
2022-08-05T05:41:40.622Z,23.60
2022-08-05T05:42:47.167Z,23.70
2022-08-05T05:43:58.410Z,23.70
2022-08-05T05:45:02.915Z,23.70
2022-08-05T05:46:05.219Z,23.80
2022-08-05T05:47:21.692Z,23.80
2022-08-05T05:48:27.584Z,23.90
2022-08-05T05:49:29.464Z,24.10
2022-08-05T05:50:31.118Z,24.30
2022-08-05T05:51:49.717Z,24.10
2022-08-05T05:52:52.465Z,24.20
2022-08-05T05:53:58.843Z,24.20
2022-08-05T05:55:02.466Z,24.30
2022-08-05T05:56:09.619Z,24.30
2022-08-05T05:57:13.798Z,24.30
2022-08-05T05:58:21.150Z,24.40
2022-08-05T05:59:33.840Z,24.50
2022-08-05T06:00:42.110Z,24.60
2022-08-05T06:01:57.373Z,24.60
2022-08-05T06:03:02.805Z,24.50
2022-08-05T06:04:04.958Z,24.50
2022-08-05T06:05:16.705Z,24.50
2022-08-05T06:06:19.263Z,24.50
2022-08-05T06:07:24.300Z,24.60
2022-08-05T06:08:44.423Z,24.60
2022-08-05T06:10:00.579Z,24.60
2022-08-05T06:11:05.430Z,24.60
2022-08-05T06:12:09.668Z,24.60
2022-08-05T06:13:13.791Z,24.70
2022-08-05T06:14:15.414Z,24.70
2022-08-05T06:15:24.030Z,24.70
2022-08-05T06:16:29.347Z,24.70
2022-08-05T06:17:53.676Z,24.80
2022-08-05T06:18:56.674Z,24.90
2022-08-05T06:20:02.553Z,24.90
2022-08-05T06:21:04.789Z,24.90
2022-08-05T06:22:10.211Z,25.00
2022-08-05T06:23:12.145Z,25.20
2022-08-05T06:24:14.741Z,25.20
2022-08-05T06:25:59.142Z,25.30
2022-08-05T06:26:38.756Z,25.40
2022-08-05T06:28:10.871Z,25.40
2022-08-05T06:29:03.663Z,25.50
2022-08-05T06:30:27.414Z,25.60
2022-08-05T06:31:30.403Z,25.70
2022-08-05T06:32:32.783Z,25.70
2022-08-05T06:34:07.590Z,25.80
2022-08-05T06:35:05.974Z,25.90
2022-08-05T06:36:17.047Z,25.90
2022-08-05T06:37:55.622Z,26.00
2022-08-05T06:38:40.692Z,26.10
2022-08-05T06:39:49.058Z,26.20
2022-08-05T06:40:51.593Z,26.20
2022-08-05T06:41:53.623Z,26.30
2022-08-05T06:42:55.262Z,26.40
2022-08-05T06:44:00.297Z,26.60
2022-08-05T06:45:05.427Z,26.60
2022-08-05T06:46:10.357Z,26.70
2022-08-05T06:48:11.831Z,26.80
2022-08-05T06:48:54.713Z,26.80
2022-08-05T06:50:00.177Z,26.80
2022-08-05T06:51:09.634Z,26.90
2022-08-05T06:52:36.407Z,26.90
2022-08-05T06:53:39.311Z,27.00
2022-08-05T06:54:41.554Z,27.00
2022-08-05T06:55:43.268Z,26.90
2022-08-05T06:56:54.950Z,26.80
2022-08-05T06:58:29.669Z,26.80
2022-08-05T06:59:38.560Z,26.80
2022-08-05T07:00:41.123Z,26.70
2022-08-05T07:01:42.912Z,26.60
2022-08-05T07:02:48.466Z,26.60
2022-08-05T07:03:55.776Z,26.60
2022-08-05T07:04:57.476Z,26.50
2022-08-05T07:06:05.333Z,26.60
2022-08-05T07:07:08.225Z,26.50
2022-08-05T07:08:11.042Z,26.40
2022-08-05T07:09:12.939Z,26.30
2022-08-05T07:10:16.262Z,26.10
2022-08-05T07:11:25.431Z,26.20
2022-08-05T07:12:49.095Z,26.20
2022-08-05T07:14:19.967Z,26.20
2022-08-05T07:16:01.461Z,26.20
2022-08-05T07:18:02.050Z,26.20
2022-08-05T07:18:30.090Z,26.10
2022-08-05T07:20:55.038Z,26.10
2022-08-05T07:22:00.733Z,26.10
2022-08-05T07:23:02.999Z,26.10
2022-08-05T07:24:11.150Z,26.10
2022-08-05T07:25:22.546Z,26.20
2022-08-05T07:26:25.917Z,26.20
2022-08-05T07:28:00.722Z,26.20
2022-08-05T07:28:50.843Z,26.10
2022-08-05T07:30:23.806Z,26.10
2022-08-05T07:31:17.019Z,26.10
2022-08-05T07:32:26.321Z,26.30
2022-08-05T07:33:37.184Z,26.30
2022-08-05T07:34:42.253Z,26.50
2022-08-05T07:36:03.641Z,26.60
2022-08-05T07:37:07.562Z,26.60
2022-08-05T07:38:33.008Z,26.70
2022-08-05T07:40:04.590Z,26.80
2022-08-05T07:41:04.478Z,26.90
2022-08-05T07:42:31.845Z,27.00
2022-08-05T07:43:35.883Z,27.20
2022-08-05T07:44:38.689Z,27.20
2022-08-05T07:45:57.460Z,27.30
2022-08-05T07:46:59.845Z,27.10
2022-08-05T07:48:02.072Z,27.10
2022-08-05T07:49:06.129Z,27.10
2022-08-05T07:50:12.237Z,27.10
2022-08-05T07:51:23.461Z,27.20
2022-08-05T07:52:43.574Z,27.20
2022-08-05T07:53:50.388Z,27.30
2022-08-05T07:54:53.266Z,27.50
2022-08-05T07:56:05.260Z,27.50
2022-08-05T07:57:22.504Z,27.60
2022-08-05T07:58:57.242Z,27.70
2022-08-05T07:59:53.672Z,27.70
2022-08-05T08:00:55.639Z,27.80
2022-08-05T08:01:58.052Z,27.80
2022-08-05T08:03:13.753Z,27.80
2022-08-05T08:04:17.100Z,27.90
2022-08-05T08:05:27.349Z,27.70
2022-08-05T08:06:30.888Z,27.60
2022-08-05T08:07:39.465Z,27.60
2022-08-05T08:08:54.947Z,27.60
2022-08-05T08:09:57.075Z,27.70
2022-08-05T08:10:58.865Z,27.70
2022-08-05T08:12:07.758Z,27.60
2022-08-05T08:13:21.961Z,27.70
2022-08-05T08:14:31.476Z,27.70
2022-08-05T08:16:33.387Z,27.60
2022-08-05T08:16:54.951Z,27.60
2022-08-05T08:17:58.379Z,27.70
2022-08-05T08:19:03.728Z,27.70
2022-08-05T08:20:21.108Z,27.90
2022-08-05T08:21:30.712Z,27.90
2022-08-05T08:22:32.797Z,28.00
2022-08-05T08:24:01.327Z,28.10
2022-08-05T08:25:03.120Z,28.20
2022-08-05T08:26:05.708Z,28.30
2022-08-05T08:27:11.612Z,28.40
2022-08-05T08:28:36.084Z,28.50
2022-08-05T08:30:06.088Z,28.50
2022-08-05T08:31:00.626Z,28.50
2022-08-05T08:32:02.831Z,28.50
2022-08-05T08:33:13.963Z,28.60
2022-08-05T08:34:30.379Z,28.60
2022-08-05T08:35:41.302Z,28.70
2022-08-05T08:37:01.742Z,28.70
2022-08-05T08:38:06.937Z,28.80
2022-08-05T08:39:15.546Z,28.80
2022-08-05T08:40:18.424Z,28.80
2022-08-05T08:41:22.458Z,28.90
2022-08-05T08:45:30.607Z,29.00
2022-08-05T08:46:32.857Z,29.20
2022-08-05T08:48:06.915Z,29.20
2022-08-05T08:49:17.453Z,29.40
2022-08-05T08:50:32.719Z,29.30
2022-08-05T08:52:05.796Z,29.30
2022-08-05T08:53:15.253Z,29.20
2022-08-05T08:54:17.391Z,29.40
2022-08-05T08:56:01.924Z,29.40
2022-08-05T08:56:47.907Z,29.40
2022-08-05T08:57:58.320Z,29.40
2022-08-05T08:59:01.496Z,29.40
2022-08-05T09:00:11.936Z,29.60
2022-08-05T09:01:19.052Z,29.70
2022-08-05T09:02:24.211Z,29.80
2022-08-05T09:03:40.577Z,29.80
2022-08-05T09:05:16.253Z,29.70
2022-08-05T09:06:11.100Z,29.80
2022-08-05T09:07:28.192Z,29.90
2022-08-05T09:08:30.652Z,30.00
2022-08-05T09:09:35.633Z,30.10
2022-08-05T09:10:42.070Z,30.00
2022-08-05T09:11:50.685Z,29.80
2022-08-05T09:12:54.281Z,29.90
2022-08-05T09:14:10.328Z,29.90
2022-08-05T09:15:21.688Z,30.00
2022-08-05T09:16:26.945Z,30.00
2022-08-05T09:17:40.542Z,29.90
2022-08-05T09:18:44.452Z,29.90
2022-08-05T09:20:01.403Z,30.00
2022-08-05T09:21:11.454Z,30.00
2022-08-05T09:22:31.767Z,30.10
2022-08-05T09:23:37.478Z,30.20
2022-08-05T09:25:23.736Z,30.20
2022-08-05T09:26:25.678Z,30.30
2022-08-05T09:28:04.449Z,30.30
2022-08-05T09:29:05.835Z,30.30
2022-08-05T09:30:16.419Z,30.40
2022-08-05T09:32:38.656Z,30.40
2022-08-05T09:32:46.420Z,30.50
2022-08-05T09:33:53.757Z,30.50
2022-08-05T09:34:56.253Z,30.70
2022-08-05T09:36:11.756Z,30.80
2022-08-05T09:38:17.389Z,30.90
2022-08-05T09:39:16.381Z,31.00
2022-08-05T09:40:51.996Z,30.80
2022-08-05T09:42:03.751Z,30.80
2022-08-05T09:43:10.392Z,30.90
2022-08-05T09:44:11.922Z,30.90
2022-08-05T09:46:04.808Z,30.90
2022-08-05T09:46:35.226Z,30.90
2022-08-05T09:47:55.413Z,31.00
2022-08-05T09:49:07.218Z,31.00
2022-08-05T09:50:37.315Z,31.20
2022-08-05T09:51:42.638Z,31.30
2022-08-05T09:52:45.367Z,31.30
2022-08-05T09:53:54.531Z,31.40
2022-08-05T09:55:55.018Z,31.40
2022-08-05T09:56:33.682Z,31.50
2022-08-05T09:57:45.287Z,31.60
2022-08-05T09:58:58.440Z,31.70
2022-08-05T10:00:12.225Z,31.70
2022-08-05T10:01:22.574Z,31.60
2022-08-05T10:02:39.360Z,31.70
2022-08-05T10:04:00.096Z,31.60
2022-08-05T10:05:08.343Z,31.50
2022-08-05T10:06:15.474Z,31.30
2022-08-05T10:07:20.523Z,31.30
2022-08-05T10:08:37.340Z,31.20
2022-08-05T10:10:14.079Z,31.10
2022-08-05T10:11:17.528Z,31.20
2022-08-05T10:12:31.524Z,31.30
2022-08-05T10:13:45.662Z,31.20
2022-08-05T10:14:49.896Z,31.20
2022-08-05T10:15:58.382Z,31.40
2022-08-05T10:17:37.592Z,31.50
2022-08-05T10:18:37.436Z,31.40
2022-08-05T10:20:03.081Z,31.40
2022-08-05T10:21:08.361Z,31.40
2022-08-05T10:22:15.816Z,31.50
2022-08-05T10:23:59.969Z,31.60
2022-08-05T10:25:00.550Z,31.40
2022-08-05T10:26:13.847Z,31.30
2022-08-05T10:27:16.740Z,31.30
2022-08-05T10:28:29.009Z,31.30
2022-08-05T10:30:07.002Z,31.20
2022-08-05T10:32:48.045Z,31.30
2022-08-05T10:32:53.219Z,31.30
2022-08-05T10:33:44.581Z,31.40
2022-08-05T10:34:47.068Z,31.50
2022-08-05T10:35:59.733Z,31.70
2022-08-05T10:37:02.433Z,31.60
2022-08-05T10:38:06.324Z,31.70
2022-08-05T10:39:24.169Z,31.70
2022-08-05T10:40:45.861Z,31.80
2022-08-05T10:42:01.028Z,31.80
2022-08-05T10:43:18.042Z,31.70
2022-08-05T10:44:25.451Z,31.80
2022-08-05T10:45:40.117Z,31.70
2022-08-05T10:46:45.198Z,31.80
2022-08-05T10:47:56.103Z,31.70
2022-08-05T10:49:10.500Z,31.70
2022-08-05T10:50:33.061Z,31.70
2022-08-05T10:51:59.954Z,31.60
2022-08-05T10:53:02.407Z,31.50
2022-08-05T10:54:28.379Z,31.40
2022-08-05T10:55:27.878Z,31.50
2022-08-05T10:56:36.740Z,31.50
2022-08-05T10:57:41.465Z,31.50
2022-08-05T10:59:07.199Z,31.60
2022-08-05T11:00:30.074Z,31.70
2022-08-05T11:02:03.645Z,31.70
2022-08-05T11:03:25.950Z,31.70
2022-08-05T11:04:28.255Z,31.60
2022-08-05T11:05:34.105Z,31.50
2022-08-05T11:07:01.493Z,31.40
2022-08-05T11:08:27.515Z,31.50
2022-08-05T11:09:46.700Z,31.40
2022-08-05T11:10:50.431Z,31.60
2022-08-05T11:12:03.209Z,31.70
2022-08-05T11:13:06.751Z,31.80
2022-08-05T11:14:08.677Z,31.80
2022-08-05T11:15:19.407Z,31.90
2022-08-05T11:16:33.714Z,31.80
2022-08-05T11:17:58.178Z,31.70
2022-08-05T11:20:10.251Z,31.80
2022-08-05T11:20:51.391Z,31.70
2022-08-05T11:21:54.897Z,31.70
2022-08-05T11:23:05.895Z,31.70
2022-08-05T11:24:30.437Z,31.70
2022-08-05T11:26:04.418Z,31.90
2022-08-05T11:27:50.899Z,31.90
2022-08-05T11:28:54.699Z,32.00
2022-08-05T11:30:02.163Z,32.10
2022-08-05T11:31:06.546Z,32.10
2022-08-05T11:32:29.002Z,32.00
2022-08-05T11:33:46.614Z,32.00
2022-08-05T11:34:53.972Z,32.00
2022-08-05T11:36:07.486Z,32.20
2022-08-05T11:38:30.195Z,32.30
2022-08-05T11:38:45.345Z,32.40
2022-08-05T11:39:55.259Z,32.30
2022-08-05T11:41:36.878Z,32.00
2022-08-05T11:42:27.928Z,32.20
2022-08-05T11:44:04.896Z,32.00
2022-08-05T11:45:01.343Z,32.00
2022-08-05T11:46:27.026Z,32.30
2022-08-05T11:47:48.932Z,32.30
2022-08-05T11:48:46.796Z,32.10
2022-08-05T11:49:57.695Z,32.10
2022-08-05T11:51:00.015Z,32.20
2022-08-05T11:52:01.968Z,32.30
2022-08-05T11:53:13.245Z,32.20
2022-08-05T11:54:33.587Z,32.20
2022-08-05T11:55:36.489Z,32.10
2022-08-05T11:56:52.145Z,32.10
2022-08-05T11:58:08.403Z,32.10
2022-08-05T11:59:17.710Z,32.00
2022-08-05T12:00:30.823Z,32.10
2022-08-05T12:01:32.674Z,32.00
2022-08-05T12:02:36.104Z,32.00
2022-08-05T12:03:55.498Z,31.90
2022-08-05T12:04:59.565Z,31.90
2022-08-05T12:06:06.067Z,32.00
2022-08-05T12:07:14.242Z,32.00
2022-08-05T12:08:18.251Z,32.10
2022-08-05T12:09:52.938Z,32.10
2022-08-05T12:10:49.593Z,32.10
2022-08-05T12:11:54.263Z,32.00
2022-08-05T12:13:04.210Z,32.00
2022-08-05T12:14:17.727Z,32.10
2022-08-05T12:15:35.834Z,32.20
2022-08-05T12:16:45.593Z,32.20
2022-08-05T12:18:03.663Z,32.20
2022-08-05T12:20:26.939Z,32.20
2022-08-05T12:20:38.818Z,32.20
2022-08-05T12:21:46.910Z,32.30
2022-08-05T12:22:51.762Z,32.30
2022-08-05T12:23:54.371Z,32.30
2022-08-05T12:24:57.373Z,32.30
2022-08-05T12:25:58.945Z,32.30
2022-08-05T12:27:09.810Z,32.20
2022-08-05T12:28:38.850Z,32.30
2022-08-05T12:29:40.456Z,32.50
2022-08-05T12:30:45.873Z,32.30
2022-08-05T12:31:55.159Z,32.30
2022-08-05T12:33:06.986Z,32.30
2022-08-05T12:34:24.041Z,32.30
2022-08-05T12:35:36.989Z,32.50
2022-08-05T12:36:52.289Z,32.50
2022-08-05T12:37:55.666Z,32.30
2022-08-05T12:38:58.629Z,32.50
2022-08-05T12:40:03.696Z,32.60
2022-08-05T12:41:14.106Z,32.60
2022-08-05T12:42:19.685Z,32.60
2022-08-05T12:43:21.454Z,32.50
2022-08-05T12:44:33.861Z,32.40
2022-08-05T12:45:42.377Z,32.30
2022-08-05T12:46:53.869Z,32.30
2022-08-05T12:48:17.014Z,32.40
2022-08-05T12:49:19.052Z,32.50
2022-08-05T12:50:21.361Z,32.60
2022-08-05T12:52:13.457Z,32.70
2022-08-05T12:52:56.811Z,32.60
2022-08-05T12:54:02.034Z,32.70
2022-08-05T12:55:22.108Z,32.60
2022-08-05T12:56:35.269Z,32.50
2022-08-05T12:58:49.930Z,32.50
2022-08-05T12:59:27.517Z,32.50
2022-08-05T13:02:02.433Z,32.40
2022-08-05T13:02:09.873Z,32.30
2022-08-05T13:03:14.710Z,32.30
2022-08-05T13:04:20.987Z,32.20
2022-08-05T13:05:26.581Z,32.10
2022-08-05T13:06:51.441Z,32.10
2022-08-05T13:08:00.674Z,32.20
2022-08-05T13:09:14.612Z,32.20
2022-08-05T13:10:34.875Z,32.20
2022-08-05T13:12:02.818Z,32.30
2022-08-05T13:13:06.871Z,32.50
2022-08-05T13:14:24.738Z,32.50
2022-08-05T13:15:50.282Z,32.40
2022-08-05T13:16:58.815Z,32.40
2022-08-05T13:18:00.589Z,32.40
2022-08-05T13:19:02.987Z,32.50
2022-08-05T13:20:12.016Z,32.60
2022-08-05T13:21:13.535Z,32.80
2022-08-05T13:22:27.715Z,32.90
2022-08-05T13:23:30.623Z,33.00
2022-08-05T13:24:51.213Z,33.00
2022-08-05T13:25:59.696Z,33.00
2022-08-05T13:27:03.425Z,33.10
2022-08-05T13:28:06.875Z,33.20
2022-08-05T13:29:12.338Z,33.20
2022-08-05T13:30:39.059Z,33.10
2022-08-05T13:32:04.482Z,33.10
2022-08-05T13:33:06.242Z,33.10
2022-08-05T13:34:23.190Z,33.10
2022-08-05T13:35:42.967Z,33.20
2022-08-05T13:36:48.929Z,33.30
2022-08-05T13:37:55.754Z,33.50
2022-08-05T13:38:57.948Z,33.60
2022-08-05T13:40:16.501Z,33.60
2022-08-05T13:41:21.328Z,33.40
2022-08-05T13:42:27.761Z,33.40
2022-08-05T13:43:45.165Z,33.30
2022-08-05T13:44:52.663Z,33.10
2022-08-05T13:45:54.360Z,33.00
2022-08-05T13:47:02.341Z,32.90
2022-08-05T13:48:09.904Z,32.80
2022-08-05T13:49:28.651Z,32.70
2022-08-05T13:50:37.084Z,32.60
2022-08-05T13:51:41.426Z,32.60
2022-08-05T13:52:44.084Z,32.70
2022-08-05T13:53:48.133Z,32.80
2022-08-05T13:54:53.597Z,32.80
2022-08-05T13:55:58.881Z,32.80
2022-08-05T13:57:03.930Z,32.80
2022-08-05T13:58:08.616Z,32.80
2022-08-05T13:59:20.206Z,32.80
2022-08-05T14:00:27.156Z,32.70
2022-08-05T14:01:44.351Z,32.60
2022-08-05T14:02:51.175Z,32.80
2022-08-05T14:04:11.815Z,32.90
2022-08-05T14:05:19.584Z,33.00
2022-08-05T14:06:31.344Z,33.00
2022-08-05T14:08:00.139Z,33.20
2022-08-05T14:08:59.566Z,33.20
2022-08-05T14:10:02.214Z,33.30
2022-08-05T14:11:20.196Z,33.10
2022-08-05T14:12:32.241Z,32.90
2022-08-05T14:13:34.399Z,32.80
2022-08-05T14:14:36.059Z,32.80
2022-08-05T14:16:09.216Z,32.80
2022-08-05T14:17:00.426Z,32.70
2022-08-05T14:18:02.812Z,32.80
2022-08-05T14:19:05.461Z,32.60
2022-08-05T14:20:07.915Z,32.60
2022-08-05T14:22:07.751Z,32.60
2022-08-05T14:22:34.401Z,32.50
2022-08-05T14:23:37.310Z,32.50
2022-08-05T14:24:39.907Z,32.50
2022-08-05T14:25:44.887Z,32.50
2022-08-05T14:27:02.028Z,32.50
2022-08-05T14:28:08.516Z,32.50
2022-08-05T14:29:17.631Z,32.70
2022-08-05T14:30:21.483Z,32.80
2022-08-05T14:31:54.278Z,32.80
2022-08-05T14:32:45.583Z,33.00
2022-08-05T14:34:00.361Z,33.00
2022-08-05T14:35:02.201Z,33.00
2022-08-05T14:36:04.486Z,33.00
2022-08-05T14:37:06.296Z,32.90
2022-08-05T14:38:08.191Z,32.70
2022-08-05T14:39:29.825Z,32.60
2022-08-05T14:40:51.728Z,32.50
2022-08-05T14:42:19.457Z,32.30
2022-08-05T14:43:15.444Z,32.30
2022-08-05T14:44:20.733Z,32.30
2022-08-05T14:45:23.900Z,32.20
2022-08-05T14:46:30.615Z,32.30
2022-08-05T14:48:03.318Z,32.30
2022-08-05T14:48:54.790Z,32.30
2022-08-05T14:49:58.861Z,32.10
2022-08-05T14:51:03.643Z,32.10
2022-08-05T14:52:05.585Z,32.10
2022-08-05T14:53:12.556Z,32.20
2022-08-05T14:54:30.285Z,32.30
2022-08-05T14:55:39.173Z,32.10
2022-08-05T14:56:44.268Z,31.90
2022-08-05T14:57:54.294Z,31.90
2022-08-05T14:58:58.084Z,31.90
2022-08-05T14:59:59.807Z,31.60
2022-08-05T15:01:01.987Z,31.50
2022-08-05T15:02:15.849Z,31.40
2022-08-05T15:03:17.641Z,31.50
2022-08-05T15:04:22.539Z,31.60
2022-08-05T15:05:30.225Z,31.70
2022-08-05T15:06:49.062Z,31.70
2022-08-05T15:08:13.186Z,31.70
2022-08-05T15:09:13.664Z,31.70
2022-08-05T15:10:17.229Z,31.60
2022-08-05T15:11:19.000Z,31.50
2022-08-05T15:12:21.157Z,31.50
2022-08-05T15:13:45.985Z,31.60